Time;durP1;ratioP1;P1;durP2;ratioP2;P2;SDS_P1;SDS_P2;PMS_P1;PMS_P2;Temp;Humidity;BMP_temperature;BMP_pressure;BME280_temperature;BME280_humidity;BME280_pressure;Samples;Min_cycle;Max_cycle;Signal;HPM_P1;HPM_P2
2021/10/05 10:32:24;;;;;;;5.73;1.47;;;15.60;99.90;;;;;;14793397;22;1371743;-52
2021/10/05 10:38:22;;;;;;;7.03;1.40;;;15.80;99.90;;;;;;14867790;22;20263;-49
2021/10/05 10:44:12;;;;;;;9.88;1.40;;;16.10;99.90;;;;;;14873219;22;20028;-49
2021/10/05 10:50:02;;;;;;;9.10;1.10;;;16.50;99.90;;;;;;14874168;22;20058;-53
2021/10/05 10:55:49;;;;;;;5.35;1.00;;;16.40;99.90;;;;;;14873664;22;20099;-50
2021/10/05 11:01:38;;;;;;;6.15;1.25;;;16.00;99.90;;;;;;14873649;22;20106;-48
2021/10/05 11:07:33;;;;;;;7.57;1.27;;;16.20;99.90;;;;;;14873482;22;20024;-50
2021/10/05 11:13:20;;;;;;;21.35;2.10;;;16.20;99.90;;;;;;14873759;22;20114;-52
2021/10/05 11:19:16;;;;;;;6.55;1.40;;;16.10;99.90;;;;;;14873557;22;20062;-50
2021/10/05 11:25:05;;;;;;;16.48;1.67;;;16.00;99.90;;;;;;14864078;22;20034;-53
2021/10/05 11:30:55;;;;;;;5.32;1.10;;;15.70;99.90;;;;;;14830365;22;20361;-52
2021/10/05 11:36:42;;;;;;;8.38;1.77;;;15.90;99.90;;;;;;14833550;22;20028;-50
2021/10/05 11:42:30;;;;;;;15.10;1.27;;;16.10;99.90;;;;;;14856927;22;20034;-51
2021/10/05 11:48:17;;;;;;;8.27;2.15;;;16.40;99.90;;;;;;14855898;22;20462;-53
2021/10/05 11:54:04;;;;;;;15.25;2.15;;;16.30;99.90;;;;;;14856594;22;20470;-49
2021/10/05 11:59:55;;;;;;;7.55;1.67;;;16.70;99.90;;;;;;14855170;22;20020;-51
2021/10/05 12:05:42;;;;;;;10.23;1.63;;;16.70;99.90;;;;;;14855906;22;20023;-53
2021/10/05 12:11:36;;;;;;;5.93;1.20;;;16.90;99.90;;;;;;14858307;22;20024;-54
2021/10/05 12:17:28;;;;;;;7.45;1.17;;;17.10;99.90;;;;;;14855804;22;20419;-54
2021/10/05 12:23:14;;;;;;;4.45;0.90;;;17.50;99.90;;;;;;14853533;22;20031;-51
2021/10/05 12:29:04;;;;;;;9.48;1.95;;;17.80;99.90;;;;;;14835202;22;20019;-51
2021/10/05 12:35:03;;;;;;;7.18;0.90;;;18.10;99.90;;;;;;14822612;22;20370;-50
2021/10/05 12:40:54;;;;;;;4.90;1.05;;;17.70;99.90;;;;;;14823292;22;20111;-53
2021/10/05 12:46:41;;;;;;;7.70;1.20;;;17.60;99.90;;;;;;14808058;22;20482;-51
2021/10/05 12:52:29;;;;;;;7.50;1.23;;;17.80;99.90;;;;;;14820812;22;20116;-53
2021/10/05 12:58:16;;;;;;;8.68;1.10;;;18.20;99.90;;;;;;14840090;22;20111;-49
2021/10/05 13:04:03;;;;;;;7.15;0.90;;;18.20;99.90;;;;;;14854055;22;20082;-50
2021/10/05 13:09:51;;;;;;;5.03;0.95;;;18.40;99.90;;;;;;14853341;22;20024;-50
2021/10/05 13:15:38;;;;;;;6.45;1.00;;;18.40;99.90;;;;;;14852532;22;20047;-52
2021/10/05 13:21:25;;;;;;;5.63;1.00;;;18.50;99.90;;;;;;14854057;22;20519;-53
2021/10/05 13:27:13;;;;;;;2.50;0.55;;;18.60;99.90;;;;;;14842486;22;20030;-49
2021/10/05 13:33:00;;;;;;;2.05;0.63;;;17.50;99.90;;;;;;14825701;22;20031;-50
2021/10/05 13:45:30;;;;;;;3.25;1.33;;;16.20;99.90;;;;;;14840632;22;21089;-54
2021/10/05 13:51:17;;;;;;;6.57;1.13;;;16.90;99.90;;;;;;14846478;22;20047;-50
2021/10/05 13:57:04;;;;;;;7.43;1.10;;;17.60;99.90;;;;;;14849954;22;20462;-49
2021/10/05 14:02:52;;;;;;;6.35;1.23;;;18.20;99.90;;;;;;14848677;22;20377;-49
2021/10/05 14:08:39;;;;;;;9.10;1.40;;;18.00;99.90;;;;;;14843642;22;20016;-54
2021/10/05 14:14:26;;;;;;;3.58;0.90;;;17.40;99.90;;;;;;14850397;22;20028;-51
2021/10/05 14:20:15;;;;;;;3.72;0.90;;;16.80;99.90;;;;;;14845579;22;20020;-51
2021/10/05 14:26:01;;;;;;;9.98;1.58;;;16.20;99.90;;;;;;14851014;22;20027;-50
2021/10/05 14:31:48;;;;;;;5.25;1.13;;;16.20;99.90;;;;;;14821152;22;20378;-50
2021/10/05 14:37:37;;;;;;;6.82;1.48;;;16.50;99.90;;;;;;14823637;22;20028;-49
2021/10/05 14:43:24;;;;;;;6.72;1.38;;;17.30;99.90;;;;;;14821771;22;20024;-51
2021/10/05 14:49:11;;;;;;;3.05;0.98;;;17.70;99.90;;;;;;14820952;22;20028;-52
2021/10/05 14:55:00;;;;;;;4.38;1.20;;;17.50;99.90;;;;;;14821963;22;20359;-52
2021/10/05 15:00:47;;;;;;;1.88;0.95;;;17.30;99.90;;;;;;14850320;22;20032;-52
2021/10/05 15:06:35;;;;;;;4.68;1.23;;;17.30;99.90;;;;;;14857358;22;20024;-50
2021/10/05 15:12:23;;;;;;;10.32;1.77;;;17.30;99.90;;;;;;14857407;22;20357;-50
2021/10/05 15:18:10;;;;;;;5.43;1.00;;;17.50;99.90;;;;;;14856857;22;20074;-50
2021/10/05 15:23:57;;;;;;;5.60;1.42;;;17.40;99.90;;;;;;14857344;22;20028;-48
2021/10/05 15:29:46;;;;;;;3.65;0.90;;;17.90;99.90;;;;;;14840168;22;20026;-48
2021/10/05 15:35:32;;;;;;;4.68;1.13;;;18.30;99.90;;;;;;14859090;22;20386;-51
2021/10/05 15:41:19;;;;;;;5.72;1.25;;;18.20;99.90;;;;;;14856367;22;20111;-53
2021/10/05 15:47:09;;;;;;;4.75;1.05;;;18.10;99.90;;;;;;14856245;22;20024;-49
2021/10/05 15:52:56;;;;;;;7.90;1.10;;;17.90;99.90;;;;;;14856898;22;20339;-49
2021/10/05 15:58:43;;;;;;;5.10;1.17;;;17.70;99.90;;;;;;14856559;22;20430;-50
2021/10/05 16:04:31;;;;;;;6.82;1.10;;;17.50;99.90;;;;;;14856306;22;20103;-52
2021/10/05 16:10:18;;;;;;;4.30;1.35;;;17.30;99.90;;;;;;14856368;22;20500;-51
2021/10/05 16:16:06;;;;;;;8.18;1.52;;;17.00;99.90;;;;;;14856944;22;20016;-50
2021/10/05 16:21:54;;;;;;;6.28;1.20;;;16.80;99.90;;;;;;14856543;22;20099;-51
2021/10/05 16:27:41;;;;;;;7.85;2.05;;;16.70;99.90;;;;;;14844379;22;20603;-50
2021/10/05 16:33:28;;;;;;;4.25;1.15;;;16.80;99.90;;;;;;14827583;22;20039;-52
2021/10/05 16:39:17;;;;;;;10.43;2.45;;;16.70;99.90;;;;;;14823467;22;20020;-51
2021/10/05 16:45:06;;;;;;;5.25;1.38;;;16.40;99.90;;;;;;14825912;22;20151;-51
2021/10/05 16:50:55;;;;;;;5.55;1.05;;;16.00;99.90;;;;;;14855577;22;20024;-50
2021/10/05 16:56:43;;;;;;;5.75;1.20;;;16.10;99.90;;;;;;14850777;22;20050;-53
2021/10/05 17:02:30;;;;;;;4.60;1.10;;;16.10;99.90;;;;;;14857188;22;20043;-49
2021/10/05 17:08:17;;;;;;;2.97;1.00;;;16.30;99.90;;;;;;14855049;22;20099;-50
2021/10/05 17:14:06;;;;;;;8.57;1.63;;;16.40;99.90;;;;;;14854944;22;20474;-49
2021/10/05 17:19:53;;;;;;;8.85;1.33;;;16.30;99.90;;;;;;14853891;22;20016;-51
2021/10/05 17:25:40;;;;;;;2.60;0.88;;;16.30;99.90;;;;;;14854413;22;20565;-47
2021/10/05 17:31:28;;;;;;;6.00;0.80;;;15.80;99.90;;;;;;14763844;22;20051;-49
2021/10/05 17:37:15;;;;;;;4.50;0.88;;;15.50;99.90;;;;;;14850671;22;20393;-49
2021/10/05 17:43:03;;;;;;;5.15;1.13;;;15.70;99.90;;;;;;14854515;22;20030;-52
2021/10/05 17:48:51;;;;;;;2.28;0.82;;;15.90;99.90;;;;;;14854651;22;20080;-53
2021/10/05 17:54:38;;;;;;;4.40;0.90;;;15.70;99.90;;;;;;14854568;22;20035;-50
2021/10/05 18:00:25;;;;;;;3.38;1.23;;;15.80;99.90;;;;;;14853910;22;20366;-51
2021/10/05 18:06:13;;;;;;;3.05;0.95;;;15.70;99.90;;;;;;14824924;22;20035;-76
2021/10/05 18:12:04;;;;;;;7.97;1.40;;;15.80;99.90;;;;;;14829395;22;20400;-76
2021/10/05 18:17:51;;;;;;;12.85;4.45;;;15.80;99.90;;;;;;14829161;22;20369;-76
2021/10/05 18:23:40;;;;;;;12.38;2.22;;;15.80;99.90;;;;;;14832791;22;20099;-75
2021/10/05 18:29:26;;;;;;;7.63;2.78;;;15.70;99.90;;;;;;14830738;22;20102;-75
2021/10/05 18:35:15;;;;;;;10.95;4.50;;;15.70;99.90;;;;;;14832115;22;20836;-76
2021/10/05 18:41:03;;;;;;;38.83;18.13;;;15.50;99.90;;;;;;14836209;22;20031;-76
